createdAt,value
2019-04-28T00:00:32.421Z,6.4
2019-04-28T00:01:38.816Z,6.4
2019-04-28T00:02:47.515Z,6.4
2019-04-28T00:03:54.722Z,6.4
2019-04-28T00:05:02.051Z,6.4
2019-04-28T00:06:10.909Z,6.4
2019-04-28T00:07:17.954Z,6.4
2019-04-28T00:08:25.153Z,6.4
2019-04-28T00:09:32.085Z,6.4
2019-04-28T00:10:39.293Z,6.4
2019-04-28T00:11:48.526Z,6.4
2019-04-28T00:12:55.735Z,6.4
2019-04-28T00:14:02.944Z,6.3
2019-04-28T00:15:11.389Z,6.4
2019-04-28T00:16:18.605Z,6.4
2019-04-28T00:17:30.875Z,6.4
2019-04-28T00:18:38.175Z,6.4
2019-04-28T00:19:45.391Z,6.4
2019-04-28T00:20:52.601Z,6.4
2019-04-28T00:22:01.555Z,6.4
2019-04-28T00:23:08.787Z,6.4
2019-04-28T00:24:17.893Z,6.4
2019-04-28T00:25:24.825Z,6.4
2019-04-28T00:26:32.023Z,6.4
2019-04-28T00:27:39.224Z,6.4
2019-04-28T00:28:48.244Z,6.3
2019-04-28T00:29:57.241Z,6.3
2019-04-28T00:31:04.448Z,6.3
2019-04-28T00:32:11.859Z,6.3
2019-04-28T00:33:18.795Z,6.4
2019-04-28T00:34:25.724Z,6.4
2019-04-28T00:35:35.688Z,6.5
2019-04-28T00:36:43.570Z,6.4
2019-04-28T00:37:52.184Z,6.4
2019-04-28T00:38:59.128Z,6.4
2019-04-28T00:40:07.944Z,6.4
2019-04-28T00:41:17.314Z,6.4
2019-04-28T00:42:24.522Z,6.4
2019-04-28T00:43:32.333Z,6.4
2019-04-28T00:44:39.262Z,6.4
2019-04-28T00:45:51.488Z,6.4
2019-04-28T00:46:58.695Z,6.4
2019-04-28T00:48:07.589Z,6.3
2019-04-28T00:49:14.531Z,6.3
2019-04-28T00:50:22.231Z,6.4
2019-04-28T00:51:31.151Z,6.4
2019-04-28T00:52:38.256Z,6.3
2019-04-28T00:53:45.462Z,6.3
2019-04-28T00:54:53.283Z,6.4
2019-04-28T00:56:02.541Z,6.4
2019-04-28T00:57:11.723Z,6.4
2019-04-28T00:58:20.767Z,6.4
2019-04-28T00:59:27.833Z,6.4
2019-04-28T01:00:34.769Z,6.3
2019-04-28T01:01:43.135Z,6.4
2019-04-28T01:02:51.521Z,6.4
2019-04-28T01:03:58.757Z,6.4
2019-04-28T01:05:08.038Z,6.4
2019-04-28T01:06:15.251Z,6.4
2019-04-28T01:07:22.461Z,6.4
2019-04-28T01:08:31.344Z,6.3
2019-04-28T01:09:38.551Z,6.3
2019-04-28T01:10:47.864Z,6.3
2019-04-28T01:11:57.045Z,6.3
2019-04-28T01:13:03.976Z,6.3
2019-04-28T01:14:12.038Z,6.4
2019-04-28T01:15:20.719Z,6.4
2019-04-28T01:16:27.355Z,6.3
2019-04-28T01:17:36.430Z,6.3
2019-04-28T01:18:43.076Z,6.3
2019-04-28T01:19:51.935Z,6.4
2019-04-28T01:21:00.166Z,6.4
2019-04-28T01:22:07.103Z,6.4
2019-04-28T01:23:16.259Z,6.3
2019-04-28T01:24:23.474Z,6.3
2019-04-28T01:25:32.238Z,6.3
2019-04-28T01:26:41.631Z,6.3
2019-04-28T01:27:50.937Z,6.3
2019-04-28T01:29:00.115Z,6.3
2019-04-28T01:30:11.218Z,6.3
2019-04-28T01:31:21.443Z,6.3
2019-04-28T01:32:30.637Z,6.3
2019-04-28T01:33:37.839Z,6.3
2019-04-28T01:34:46.874Z,6.3
2019-04-28T01:35:53.806Z,6.3
2019-04-28T01:37:01.016Z,6.3
2019-04-28T01:38:09.889Z,6.4
2019-04-28T01:39:20.609Z,6.4
2019-04-28T01:40:27.821Z,6.3
2019-04-28T01:41:36.682Z,6.3
2019-04-28T01:42:43.619Z,6.4
2019-04-28T01:43:52.176Z,6.4
2019-04-28T01:45:01.179Z,6.4
2019-04-28T01:46:09.961Z,6.4
2019-04-28T01:47:17.344Z,6.4
2019-04-28T01:48:24.273Z,6.5
2019-04-28T01:49:31.207Z,6.4
2019-04-28T01:50:40.213Z,6.4
2019-04-28T01:51:47.146Z,6.3
2019-04-28T01:52:54.351Z,6.3
2019-04-28T01:54:01.295Z,6.3
2019-04-28T01:55:10.559Z,6.4
2019-04-28T01:56:17.765Z,6.3
2019-04-28T01:57:26.394Z,6.3
2019-04-28T01:58:33.334Z,6.3
2019-04-28T01:59:40.968Z,6.3
2019-04-28T02:00:48.181Z,6.3
2019-04-28T02:01:57.180Z,6.3
2019-04-28T02:03:06.334Z,6.3
2019-04-28T02:04:13.545Z,6.3
2019-04-28T02:05:20.758Z,6.3
2019-04-28T02:06:29.751Z,6.3
2019-04-28T02:07:37.171Z,6.3
2019-04-28T02:08:44.106Z,6.3
2019-04-28T02:09:51.077Z,6.3
2019-04-28T02:10:59.916Z,6.3
2019-04-28T02:12:07.298Z,6.3
2019-04-28T02:13:16.740Z,6.3
2019-04-28T02:14:26.119Z,6.3
2019-04-28T02:15:33.322Z,6.3
2019-04-28T02:16:40.998Z,6.4
2019-04-28T02:17:49.971Z,6.4
2019-04-28T02:19:00.273Z,6.4
2019-04-28T02:20:07.471Z,6.4
2019-04-28T02:21:16.602Z,6.3
2019-04-28T02:22:25.818Z,6.3
2019-04-28T02:23:32.749Z,6.2
2019-04-28T02:24:41.012Z,6.2
2019-04-28T02:25:49.963Z,6.3
2019-04-28T02:26:56.895Z,6.3
2019-04-28T02:28:04.123Z,6.3
2019-04-28T02:29:11.071Z,6.3
2019-04-28T02:30:40.890Z,6.3
2019-04-28T02:32:02.857Z,6.3
2019-04-28T02:33:11.450Z,6.3
2019-04-28T02:34:21.511Z,6.3
2019-04-28T02:35:31.439Z,6.3
2019-04-28T02:36:41.483Z,6.3
2019-04-28T02:37:51.048Z,6.3
2019-04-28T02:39:00.512Z,6.3
2019-04-28T02:40:10.223Z,6.3
2019-04-28T02:41:17.910Z,6.3
2019-04-28T02:42:27.626Z,6.3
2019-04-28T02:43:37.601Z,6.3
2019-04-28T02:44:50.159Z,6.3
2019-04-28T02:45:57.615Z,6.3
2019-04-28T02:47:09.854Z,6.3
2019-04-28T02:48:20.889Z,6.3
2019-04-28T02:49:31.086Z,6.3
2019-04-28T02:50:40.807Z,6.3
2019-04-28T02:51:50.979Z,6.2
2019-04-28T02:52:58.191Z,6.3
2019-04-28T02:54:10.854Z,6.3
2019-04-28T02:55:18.064Z,6.3
2019-04-28T02:56:30.494Z,6.2
2019-04-28T02:57:40.279Z,6.2
2019-04-28T02:58:47.587Z,6.1
2019-04-28T03:00:00.229Z,6.2
2019-04-28T03:01:26.340Z,6.2
2019-04-28T03:02:33.775Z,6.2
2019-04-28T03:03:41.434Z,6.2
2019-04-28T03:04:51.222Z,6.2
2019-04-28T03:06:01.892Z,6.2
2019-04-28T03:07:14.855Z,6.2
2019-04-28T03:08:22.027Z,6.2
2019-04-28T03:09:31.190Z,6.2
2019-04-28T03:10:41.412Z,6.2
2019-04-28T03:11:50.917Z,6.2
2019-04-28T03:13:01.615Z,6.2
2019-04-28T03:14:11.315Z,6.2
2019-04-28T03:15:20.970Z,6.2
2019-04-28T03:16:30.010Z,6.2
2019-04-28T03:17:40.306Z,6.2
2019-04-28T03:18:47.927Z,6.2
2019-04-28T03:20:00.619Z,6.2
2019-04-28T03:21:08.283Z,6.2
2019-04-28T03:22:20.221Z,6.2
2019-04-28T03:23:30.731Z,6.2
2019-04-28T03:24:40.990Z,6.2
2019-04-28T03:25:51.050Z,6.1
2019-04-28T03:27:00.516Z,6.1
2019-04-28T03:28:12.589Z,6.1
2019-04-28T03:29:21.097Z,6.1
2019-04-28T03:30:33.088Z,6.1
2019-04-28T03:32:09.281Z,6.2
2019-04-28T03:33:56.502Z,6.2
2019-04-28T03:35:04.630Z,6.1
2019-04-28T03:36:16.306Z,6.1
2019-04-28T03:37:24.791Z,6.1
2019-04-28T03:38:31.547Z,6.1
2019-04-28T03:39:41.081Z,6.1
2019-04-28T03:40:50.954Z,6.1
2019-04-28T03:42:00.670Z,6.1
2019-04-28T03:43:07.335Z,6.1
2019-04-28T03:44:21.452Z,6.1
2019-04-28T03:45:31.116Z,6.1
2019-04-28T03:46:41.098Z,6
2019-04-28T03:47:51.267Z,6
2019-04-28T03:49:01.249Z,6
2019-04-28T03:50:10.868Z,6
2019-04-28T03:51:20.830Z,6
2019-04-28T03:52:28.267Z,6
2019-04-28T03:53:41.403Z,6
2019-04-28T03:54:51.475Z,6.1
2019-04-28T03:56:01.949Z,6
2019-04-28T03:57:11.823Z,6
2019-04-28T03:58:24.469Z,6
2019-04-28T22:00:06.461Z,5.2
2019-04-28T22:01:13.667Z,5.2
2019-04-28T22:02:20.880Z,5.2
2019-04-28T22:03:28.083Z,5.2
2019-04-28T22:04:35.283Z,5.2
2019-04-28T22:05:42.485Z,5.1
2019-04-28T22:06:49.690Z,5.2
2019-04-28T22:07:56.628Z,5.1
2019-04-28T22:09:03.829Z,5.2
2019-04-28T22:10:11.036Z,5.2
2019-04-28T22:11:17.977Z,5.2
2019-04-28T22:12:25.186Z,5.1
2019-04-28T22:13:32.387Z,5.1
2019-04-28T22:14:39.613Z,5.1
2019-04-28T22:15:46.541Z,5
2019-04-28T22:16:53.746Z,5
2019-04-28T22:18:00.687Z,5
2019-04-28T22:19:07.629Z,5
2019-04-28T22:20:14.847Z,5
2019-04-28T22:21:21.785Z,5
2019-04-28T22:22:29.003Z,5
2019-04-28T22:23:35.660Z,5
2019-04-28T22:24:42.592Z,5
2019-04-28T22:25:49.799Z,5
2019-04-28T22:26:57.005Z,5
2019-04-28T22:28:03.942Z,5
2019-04-28T22:29:11.155Z,5
2019-04-28T22:30:18.083Z,5
2019-04-28T22:31:25.308Z,5
2019-04-28T22:32:32.252Z,5
2019-04-28T22:33:39.197Z,5
2019-04-28T22:34:46.407Z,5
2019-04-28T22:35:53.614Z,5
2019-04-28T22:37:00.811Z,5
2019-04-28T22:38:08.024Z,5
2019-04-28T22:39:14.969Z,5
2019-04-28T22:40:21.895Z,5
2019-04-28T22:41:28.841Z,5
2019-04-28T22:42:35.497Z,5.1
2019-04-28T22:43:42.715Z,5.1
2019-04-28T22:44:49.928Z,5.1
2019-04-28T22:45:56.861Z,5.1
2019-04-28T22:47:04.080Z,5
2019-04-28T22:48:11.283Z,5.1
2019-04-28T22:49:17.974Z,5.1
2019-04-28T22:50:25.199Z,5.1
2019-04-28T22:51:32.131Z,5.1
2019-04-28T22:52:39.073Z,5.1
2019-04-28T22:53:46.281Z,5.1
2019-04-28T22:54:53.488Z,5.2
2019-04-28T22:56:00.691Z,5.2
2019-04-28T22:57:07.941Z,5.2
2019-04-28T22:58:15.163Z,5.2
2019-04-28T22:59:22.379Z,5.2
2019-04-28T23:00:29.595Z,5.2
2019-04-28T23:01:36.523Z,5.2
2019-04-28T23:02:43.464Z,5.2
2019-04-28T23:03:50.692Z,5.2
2019-04-28T23:04:57.899Z,5.2
2019-04-28T23:06:05.113Z,5.2
2019-04-28T23:07:12.315Z,5.2
2019-04-28T23:08:19.525Z,5.2
2019-04-28T23:09:26.478Z,5.2
2019-04-28T23:10:33.684Z,5.2
2019-04-28T23:11:40.920Z,5.2
2019-04-28T23:12:47.866Z,5.2
2019-04-28T23:13:55.067Z,5.2
2019-04-28T23:15:01.714Z,5.2
2019-04-28T23:16:08.917Z,5.2
2019-04-28T23:17:16.119Z,5.2
2019-04-28T23:18:23.322Z,5.3
2019-04-28T23:19:30.023Z,5.3
2019-04-28T23:20:36.713Z,5.3
2019-04-28T23:21:43.646Z,5.3
2019-04-28T23:22:50.854Z,5.2
2019-04-28T23:23:57.528Z,5.3
2019-04-28T23:25:04.731Z,5.3
2019-04-28T23:26:11.941Z,5.3
2019-04-28T23:27:19.145Z,5.3
2019-04-28T23:28:26.071Z,5.2
2019-04-28T23:29:33.286Z,5.3
2019-04-28T23:30:40.491Z,5.2
2019-04-28T23:31:47.421Z,5.2
2019-04-28T23:32:54.354Z,5.3
2019-04-28T23:34:01.613Z,5.3
2019-04-28T23:35:08.546Z,5.2
2019-04-28T23:36:15.767Z,5.3
2019-04-28T23:37:22.978Z,5.2
2019-04-28T23:38:30.196Z,5.2
2019-04-28T23:39:37.409Z,5.2
2019-04-28T23:40:44.624Z,5.2
2019-04-28T23:41:51.835Z,5.2
2019-04-28T23:42:59.039Z,5.2
2019-04-28T23:44:05.989Z,5.2
2019-04-28T23:45:13.190Z,5.1
2019-04-28T23:46:20.397Z,5.1
2019-04-28T23:47:27.344Z,5.1
2019-04-28T23:48:34.556Z,5.1
2019-04-28T23:49:41.775Z,5.1
2019-04-28T23:50:48.980Z,5.2
2019-04-28T23:51:56.198Z,5.2
2019-04-28T23:53:03.140Z,5.1
2019-04-28T23:54:10.383Z,5.1
2019-04-28T23:55:17.616Z,5.1
2019-04-28T23:56:24.818Z,5.1
2019-04-28T23:57:32.017Z,5.1
2019-04-28T23:58:39.222Z,5.1
2019-04-28T23:59:46.429Z,5.1
